createdAt,value
2023-02-25T00:01:57.847Z,98099.16
2023-02-25T00:04:32.597Z,98094.44
2023-02-25T00:07:02.661Z,98098.03
2023-02-25T00:09:32.565Z,98088.34
2023-02-25T00:12:01.237Z,98100.13
2023-02-25T00:14:29.927Z,98094.06
2023-02-25T00:16:58.504Z,98093.41
2023-02-25T00:19:27.651Z,98090.78
2023-02-25T00:21:56.145Z,98096.34
2023-02-25T00:24:25.955Z,98104.69
2023-02-25T00:26:54.399Z,98089.28
2023-02-25T00:29:23.644Z,98090.59
2023-02-25T00:31:52.252Z,98078.13
2023-02-25T00:34:20.754Z,98079.13
2023-02-25T00:36:50.431Z,98076.19
2023-02-25T00:39:19.110Z,98064.91
2023-02-25T00:41:48.880Z,98064.72
2023-02-25T00:44:17.284Z,98074.19
2023-02-25T00:46:45.875Z,98062.44
2023-02-25T00:49:27.066Z,98059.47
2023-02-25T00:52:00.273Z,98053.28
2023-02-25T00:54:28.813Z,98045.06
2023-02-25T00:56:58.608Z,98055.88
2023-02-25T00:59:27.073Z,98052.94
2023-02-25T01:02:00.147Z,98049.34
2023-02-25T01:04:28.578Z,98042.47
2023-02-25T01:06:57.180Z,98044.44
2023-02-25T01:09:25.825Z,98024.47
2023-02-25T01:11:54.583Z,98027.75
2023-02-25T01:14:26.410Z,98025.78
2023-02-25T01:16:56.397Z,98018.56
2023-02-25T01:19:27.487Z,98027.94
2023-02-25T01:21:58.517Z,98011.03
2023-02-25T01:24:29.088Z,98006.47
2023-02-25T01:26:59.722Z,98009.59
2023-02-25T01:29:32.756Z,98008.59
2023-02-25T01:32:03.414Z,97998.28
2023-02-25T01:34:33.338Z,98001.88
2023-02-25T01:37:02.076Z,97995.00
2023-02-25T01:39:32.427Z,97996.31
2023-02-25T01:42:03.505Z,97991.72
2023-02-25T01:44:34.978Z,97993.69
2023-02-25T01:47:03.464Z,97998.28
2023-02-25T01:49:35.014Z,97997.94
2023-02-25T01:52:08.415Z,97989.44
2023-02-25T01:54:38.334Z,97994.34
2023-02-25T01:57:10.251Z,97994.19
2023-02-25T01:59:41.877Z,97990.28
2023-02-25T02:02:10.754Z,97991.91
2023-02-25T02:04:40.765Z,97993.53
2023-02-25T02:07:09.367Z,97993.53
2023-02-25T02:09:40.510Z,97984.84
2023-02-25T02:12:09.342Z,97990.75
2023-02-25T02:14:43.047Z,97990.75
2023-02-25T02:17:22.921Z,97977.00
2023-02-25T02:20:14.414Z,97986.81
2023-02-25T02:22:59.970Z,97987.66
2023-02-25T02:26:05.632Z,97988.78
2023-02-25T02:29:12.656Z,97978.47
2023-02-25T02:31:52.423Z,97978.94
2023-02-25T02:34:31.583Z,97974.88
2023-02-25T02:37:09.617Z,97980.59
2023-02-25T02:39:51.713Z,97978.63
2023-02-25T02:42:30.577Z,97973.72
2023-02-25T02:45:06.096Z,97980.75
2023-02-25T02:47:37.636Z,97965.53
2023-02-25T02:50:09.101Z,97980.91
2023-02-25T02:52:42.485Z,97970.75
2023-02-25T02:55:22.611Z,97971.25
2023-02-25T02:57:53.177Z,97974.19
2023-02-25T03:00:28.789Z,97970.09
2023-02-25T03:03:03.993Z,97968.78
2023-02-25T03:05:34.709Z,97973.22
2023-02-25T03:08:08.229Z,97970.41
2023-02-25T03:10:36.758Z,97973.22
2023-02-25T03:13:05.629Z,97978.94
2023-02-25T03:15:35.169Z,97979.59
2023-02-25T03:18:09.177Z,97975.34
2023-02-25T03:20:42.316Z,97982.22
2023-02-25T03:23:15.184Z,97973.38
2023-02-25T03:25:47.982Z,97979.59
2023-02-25T03:28:26.927Z,97984.69
2023-02-25T03:31:01.949Z,97986.47
2023-02-25T03:33:37.809Z,97977.28
2023-02-25T03:36:10.753Z,97985.16
2023-02-25T03:38:44.528Z,97977.28
2023-02-25T03:41:16.600Z,97967.81
2023-02-25T03:43:50.536Z,97980.25
2023-02-25T03:46:21.567Z,97963.88
2023-02-25T03:48:54.761Z,97975.69
2023-02-25T03:51:28.809Z,97985.03
2023-02-25T03:53:57.237Z,97976.34
2023-02-25T03:56:25.937Z,97980.91
2023-02-25T03:58:54.485Z,97973.25
2023-02-25T04:01:31.386Z,97965.38
2023-02-25T04:04:01.206Z,97958.84
2023-02-25T04:06:29.642Z,97966.50
2023-02-25T04:08:58.534Z,97967.34
2023-02-25T04:11:26.937Z,97979.13
2023-02-25T04:13:55.406Z,97964.88
2023-02-25T04:16:24.184Z,97975.69
2023-02-25T04:18:53.092Z,97968.16
2023-02-25T04:21:31.230Z,97958.19
2023-02-25T04:24:00.548Z,97969.47
2023-02-25T04:26:29.589Z,97961.59
2023-02-25T04:28:58.118Z,97942.28
2023-02-25T04:31:26.883Z,97950.31
2023-02-25T04:33:58.329Z,97957.00
2023-02-25T04:36:31.745Z,97946.41
2023-02-25T04:39:01.798Z,97952.63
2023-02-25T04:41:32.239Z,97942.63
2023-02-25T04:44:00.842Z,97947.19
2023-02-25T04:46:29.277Z,97932.78
2023-02-25T04:48:58.072Z,97936.41
2023-02-25T04:51:26.490Z,97929.53
2023-02-25T04:53:56.613Z,97939.84
2023-02-25T04:56:25.621Z,97922.16
2023-02-25T04:58:54.267Z,97919.69
2023-02-25T05:01:22.975Z,97926.56
2023-02-25T05:03:57.176Z,97916.09
2023-02-25T05:06:26.013Z,97909.88
2023-02-25T05:08:57.622Z,97911.69
2023-02-25T05:11:27.174Z,97923.97
2023-02-25T05:13:57.468Z,97917.09
2023-02-25T05:16:26.801Z,97910.22
2023-02-25T05:18:55.546Z,97910.72
2023-02-25T05:21:26.357Z,97919.38
2023-02-25T05:23:56.563Z,97912.81
2023-02-25T05:26:26.899Z,97921.66
2023-02-25T05:28:57.776Z,97915.78
2023-02-25T05:31:26.628Z,97895.47
2023-02-25T05:33:55.218Z,97924.28
2023-02-25T05:36:27.467Z,97925.75
2023-02-25T05:39:02.978Z,97914.78
2023-02-25T05:41:32.004Z,97920.69
2023-02-25T05:44:00.361Z,97922.81
2023-02-25T05:46:28.797Z,97931.66
2023-02-25T05:48:57.240Z,97940.50
2023-02-25T05:51:25.715Z,97918.72
2023-02-25T05:53:54.964Z,97930.19
2023-02-25T05:56:30.847Z,97936.41
2023-02-25T05:59:00.710Z,97922.31
2023-02-25T06:01:30.961Z,97936.72
2023-02-25T06:03:59.965Z,97929.19
2023-02-25T06:06:30.345Z,97932.47
2023-02-25T06:09:00.093Z,97937.72
2023-02-25T06:11:31.629Z,97919.88
2023-02-25T06:14:01.215Z,97908.56
2023-02-25T06:16:32.844Z,97944.56
2023-02-25T06:19:02.760Z,97948.69
2023-02-25T06:21:31.926Z,97947.53
2023-02-25T06:24:00.603Z,97956.69
2023-02-25T06:26:30.866Z,97948.84
2023-02-25T06:28:59.358Z,97940.31
2023-02-25T06:31:27.890Z,97948.50
2023-02-25T06:33:56.398Z,97947.19
2023-02-25T06:36:25.304Z,97958.31
2023-02-25T06:38:54.124Z,97941.63
2023-02-25T06:41:23.985Z,97959.97
2023-02-25T06:43:53.898Z,97942.47
2023-02-25T06:46:24.653Z,97961.78
2023-02-25T06:48:53.658Z,97950.81
2023-02-25T06:51:22.056Z,97974.03
2023-02-25T06:53:51.353Z,97980.25
2023-02-25T06:56:20.806Z,97982.22
2023-02-25T06:58:49.409Z,97992.22
2023-02-25T07:01:19.328Z,97983.88
2023-02-25T07:03:47.738Z,97986.97
2023-02-25T07:06:16.538Z,97992.69
2023-02-25T07:08:45.110Z,97990.91
2023-02-25T07:11:15.577Z,97984.50
2023-02-25T07:13:44.754Z,97981.41
2023-02-25T07:16:14.646Z,97992.38
2023-02-25T07:18:45.050Z,97995.31
2023-02-25T07:21:14.762Z,98002.19
2023-02-25T07:23:43.996Z,97992.16
2023-02-25T07:26:14.553Z,97991.03
2023-02-25T07:28:43.876Z,98005.91
2023-02-25T07:31:14.212Z,97999.03
2023-02-25T07:33:44.519Z,97991.69
2023-02-25T07:36:13.817Z,97988.09
2023-02-25T07:38:42.664Z,98003.47
2023-02-25T07:41:13.215Z,98005.44
2023-02-25T07:43:42.368Z,98005.13
2023-02-25T07:46:13.524Z,98002.66
2023-02-25T07:48:44.196Z,97997.22
2023-02-25T07:51:15.796Z,97993.47
2023-02-25T07:53:44.268Z,98003.13
2023-02-25T07:56:13.451Z,97992.97
2023-02-25T07:58:42.358Z,98011.63
2023-02-25T08:01:11.915Z,97992.97
2023-02-25T08:03:40.501Z,98003.13
2023-02-25T08:06:10.624Z,98000.84
2023-02-25T08:08:39.244Z,97992.00
2023-02-25T08:11:09.245Z,98004.94
2023-02-25T08:13:38.619Z,97996.59
2023-02-25T08:16:08.213Z,97992.69
2023-02-25T08:18:37.359Z,98001.19
2023-02-25T08:21:06.806Z,97994.84
2023-02-25T08:23:36.675Z,98004.97
2023-02-25T08:26:05.703Z,98002.84
2023-02-25T08:28:37.137Z,97998.25
2023-02-25T08:31:12.316Z,98002.50
2023-02-25T08:33:43.650Z,98009.38
2023-02-25T08:36:14.951Z,98021.50
2023-02-25T08:38:45.242Z,98012.97
2023-02-25T08:41:14.327Z,98010.53
2023-02-25T08:43:44.616Z,98003.13
2023-02-25T08:46:13.164Z,98003.63
2023-02-25T08:48:41.584Z,98020.00
2023-02-25T08:51:11.881Z,98014.28
2023-02-25T08:53:42.000Z,98024.41
2023-02-25T08:56:14.418Z,98031.28
2023-02-25T08:58:42.851Z,98014.56
2023-02-25T09:01:13.387Z,98039.25
2023-02-25T09:03:53.690Z,98030.25
2023-02-25T09:06:23.613Z,98025.03
2023-02-25T09:08:54.762Z,98033.72
2023-02-25T09:11:26.830Z,98031.63
2023-02-25T09:13:56.337Z,98032.56
2023-02-25T09:16:24.767Z,98038.78
2023-02-25T09:18:53.382Z,98054.47
2023-02-25T09:21:22.765Z,98044.63
2023-02-25T09:23:51.885Z,98042.78
2023-02-25T09:26:21.486Z,98047.53
2023-02-25T09:28:51.801Z,98052.13
2023-02-25T09:31:20.664Z,98063.38
2023-02-25T09:33:49.254Z,98054.41
2023-02-25T09:36:20.426Z,98055.72
2023-02-25T09:38:50.479Z,98068.34
2023-02-25T09:41:29.154Z,98066.69
2023-02-25T09:44:06.975Z,98058.84
2023-02-25T09:46:41.538Z,98082.28
2023-02-25T09:49:20.454Z,98060.50
2023-02-25T09:51:55.433Z,98072.47
2023-02-25T09:54:28.160Z,98074.47
2023-02-25T09:57:00.638Z,98073.63
2023-02-25T09:59:32.779Z,98086.72
2023-02-25T10:02:14.688Z,98082.66
2023-02-25T10:04:52.936Z,98065.63
2023-02-25T10:07:25.585Z,98080.97
2023-02-25T10:10:02.430Z,98095.34
2023-02-25T10:12:40.826Z,98088.78
2023-02-25T10:15:30.399Z,98098.72
2023-02-25T10:18:13.344Z,98102.53
2023-02-25T10:21:00.593Z,98117.59
2023-02-25T10:23:49.609Z,98111.84
2023-02-25T10:26:21.939Z,98110.72
2023-02-25T10:28:55.290Z,98110.88
2023-02-25T10:31:25.766Z,98116.34
2023-02-25T10:33:55.621Z,98109.13
2023-02-25T10:36:29.409Z,98104.22
2023-02-25T10:38:58.021Z,98115.69
2023-02-25T10:41:28.445Z,98106.03
2023-02-25T10:43:57.750Z,98103.28
2023-02-25T10:46:35.086Z,98120.00
2023-02-25T10:49:16.568Z,98104.47
2023-02-25T10:52:03.521Z,98119.41
2023-02-25T10:54:33.631Z,98111.75
2023-02-25T10:57:03.732Z,98134.50
2023-02-25T10:59:37.581Z,98128.31
2023-02-25T11:02:24.139Z,98116.19
2023-02-25T11:04:53.802Z,98129.50
2023-02-25T11:07:32.311Z,98136.50
2023-02-25T11:10:17.324Z,98142.25
2023-02-25T11:12:47.682Z,98140.75
2023-02-25T11:15:46.622Z,98141.06
2023-02-25T11:18:24.310Z,98141.72
2023-02-25T11:20:56.378Z,98155.78
2023-02-25T11:23:29.507Z,98144.94
2023-02-25T11:25:58.440Z,98140.09
2023-02-25T11:28:32.805Z,98147.81
2023-02-25T11:31:11.998Z,98158.31
2023-02-25T11:33:45.644Z,98150.34
2023-02-25T11:36:14.380Z,98153.63
2023-02-25T11:38:44.408Z,98182.25
2023-02-25T11:41:19.237Z,98153.28
2023-02-25T11:43:47.781Z,98136.56
2023-02-25T11:46:23.383Z,98168.44
2023-02-25T11:48:56.267Z,98149.63
2023-02-25T11:51:31.904Z,98170.72
2023-02-25T11:54:14.231Z,98172.00
2023-02-25T11:56:48.938Z,98173.34
2023-02-25T11:59:30.530Z,98174.13
2023-02-25T12:02:25.675Z,98172.03
2023-02-25T12:05:14.787Z,98177.59
2023-02-25T12:08:13.518Z,98182.47
2023-02-25T12:11:16.496Z,98171.97
2023-02-25T12:14:07.524Z,98185.31
2023-02-25T12:16:59.127Z,98199.34
2023-02-25T12:20:06.141Z,98190.16
2023-02-25T12:23:04.310Z,98198.41
2023-02-25T12:25:43.492Z,98195.25
2023-02-25T12:28:51.411Z,98206.06
2023-02-25T12:31:52.095Z,98213.97
2023-02-25T12:35:01.573Z,98206.97
2023-02-25T12:37:46.877Z,98209.84
2023-02-25T12:40:36.240Z,98221.66
2023-02-25T12:43:20.789Z,98207.06
2023-02-25T12:46:15.933Z,98225.41
2023-02-25T12:49:16.762Z,98215.13
2023-02-25T12:52:10.891Z,98234.47
2023-02-25T12:54:59.674Z,98227.25
2023-02-25T12:57:50.029Z,98221.03
2023-02-25T13:00:35.939Z,98225.97
2023-02-25T13:03:27.474Z,98233.78
2023-02-25T13:06:23.216Z,98254.72
2023-02-25T13:09:10.464Z,98249.06
2023-02-25T13:12:11.175Z,98262.41
2023-02-25T13:14:53.768Z,98252.38
2023-02-25T13:17:34.659Z,98259.19
2023-02-25T13:20:45.478Z,98272.75
2023-02-25T13:23:27.161Z,98278.03
2023-02-25T13:26:13.981Z,98272.22
2023-02-25T13:29:08.443Z,98300.16
2023-02-25T13:31:45.778Z,98290.53
2023-02-25T13:34:24.570Z,98292.47
2023-02-25T13:37:05.906Z,98297.91
2023-02-25T13:39:56.518Z,98296.13
2023-02-25T13:42:42.902Z,98292.97
2023-02-25T13:45:55.657Z,98303.97
2023-02-25T13:49:02.745Z,98303.00
2023-02-25T13:51:58.671Z,98306.13
2023-02-25T13:54:41.707Z,98316.47
2023-02-25T13:57:27.042Z,98321.38
2023-02-25T14:00:35.354Z,98322.72
2023-02-25T14:03:30.869Z,98335.44
2023-02-25T14:06:20.566Z,98330.03
2023-02-25T14:09:20.228Z,98333.88
2023-02-25T14:12:11.577Z,98337.00
2023-02-25T14:15:10.564Z,98353.00
2023-02-25T14:18:08.266Z,98349.88
2023-02-25T14:20:45.519Z,98367.34
2023-02-25T14:23:28.899Z,98375.72
2023-02-25T14:26:24.381Z,98363.03
2023-02-25T14:29:06.830Z,98379.97
2023-02-25T14:31:52.058Z,98385.59
2023-02-25T14:34:44.960Z,98379.00
2023-02-25T14:37:33.406Z,98389.47
2023-02-25T14:40:19.011Z,98395.22
2023-02-25T14:43:04.225Z,98408.16
2023-02-25T14:45:39.086Z,98403.38
2023-02-25T14:48:15.690Z,98406.16
2023-02-25T14:50:48.227Z,98412.06
2023-02-25T14:53:37.644Z,98420.56
2023-02-25T14:56:47.656Z,98424.44
2023-02-25T14:59:52.367Z,98430.66
2023-02-25T15:02:46.406Z,98430.50
2023-02-25T15:05:39.378Z,98428.72
2023-02-25T15:08:27.213Z,98439.00
2023-02-25T15:11:15.484Z,98438.88
2023-02-25T15:14:22.230Z,98455.00
2023-02-25T15:17:39.447Z,98452.56
2023-02-25T15:20:33.772Z,98458.16
2023-02-25T15:23:11.938Z,98457.78
2023-02-25T15:25:47.627Z,98457.78
2023-02-25T15:28:35.983Z,98471.28
2023-02-25T15:31:41.899Z,98469.13
2023-02-25T15:34:53.180Z,98478.50
2023-02-25T15:37:34.689Z,98465.06
2023-02-25T15:40:20.473Z,98473.31
2023-02-25T15:42:53.212Z,98483.22
2023-02-25T15:45:46.096Z,98494.94
2023-02-25T15:48:35.506Z,98489.31
2023-02-25T15:51:10.538Z,98495.22
2023-02-25T15:53:46.235Z,98498.84
2023-02-25T15:56:45.965Z,98498.47
2023-02-25T15:59:44.965Z,98516.47
2023-02-25T16:02:35.352Z,98519.59
2023-02-25T16:05:07.679Z,98522.66
2023-02-25T16:07:39.598Z,98532.56
2023-02-25T16:10:19.098Z,98535.75
2023-02-25T16:12:50.614Z,98541.81
2023-02-25T16:15:27.050Z,98535.50
2023-02-25T16:17:58.371Z,98547.03
2023-02-25T16:20:35.673Z,98554.47
2023-02-25T16:23:05.070Z,98557.53
2023-02-25T16:25:40.709Z,98564.78
2023-02-25T16:28:21.610Z,98577.31
2023-02-25T16:30:58.232Z,98575.78
2023-02-25T16:33:33.685Z,98583.50
2023-02-25T16:36:10.333Z,98585.44
2023-02-25T16:38:47.253Z,98589.41
2023-02-25T16:41:17.046Z,98593.94
2023-02-25T16:43:46.684Z,98589.00
2023-02-25T16:46:18.921Z,98601.25
2023-02-25T16:48:51.174Z,98606.59
2023-02-25T16:51:27.342Z,98605.78
2023-02-25T16:53:59.886Z,98621.31
2023-02-25T16:56:31.512Z,98625.56
2023-02-25T16:59:06.402Z,98624.75
2023-02-25T17:01:36.979Z,98643.16
2023-02-25T17:04:16.922Z,98646.03
2023-02-25T17:07:08.129Z,98648.91
2023-02-25T17:09:37.021Z,98661.16
2023-02-25T17:12:06.179Z,98664.16
2023-02-25T17:14:35.219Z,98671.72
2023-02-25T17:17:03.925Z,98673.66
2023-02-25T17:19:32.334Z,98679.56
2023-02-25T17:22:03.941Z,98675.25
2023-02-25T17:24:34.916Z,98690.25
2023-02-25T17:27:03.365Z,98679.09
2023-02-25T17:29:37.707Z,98689.16
2023-02-25T17:32:15.426Z,98686.56
2023-02-25T17:34:44.823Z,98699.72
2023-02-25T17:37:15.981Z,98696.56
2023-02-25T17:39:45.648Z,98693.13
2023-02-25T17:42:30.034Z,98701.09
2023-02-25T17:44:59.236Z,98709.31
2023-02-25T17:47:29.977Z,98705.06
2023-02-25T17:50:00.468Z,98709.47
2023-02-25T17:52:33.664Z,98710.09
2023-02-25T17:55:05.671Z,98707.66
2023-02-25T17:57:34.542Z,98714.50
2023-02-25T18:00:14.351Z,98724.53
2023-02-25T18:02:45.281Z,98723.03
2023-02-25T18:05:31.691Z,98728.25
2023-02-25T18:08:19.957Z,98734.69
2023-02-25T18:10:52.143Z,98742.28
2023-02-25T18:13:25.642Z,98753.22
2023-02-25T18:16:43.101Z,98749.09
2023-02-25T18:19:27.455Z,98760.63
2023-02-25T18:21:56.408Z,98755.66
2023-02-25T18:24:30.232Z,98760.63
2023-02-25T18:27:07.472Z,98760.63
2023-02-25T18:29:36.576Z,98771.06
2023-02-25T18:32:05.661Z,98775.06
2023-02-25T18:34:34.159Z,98777.94
2023-02-25T18:37:02.527Z,98783.16
2023-02-25T18:39:32.335Z,98781.34
2023-02-25T18:42:00.709Z,98787.16
2023-02-25T18:44:29.138Z,98783.84
2023-02-25T18:46:57.521Z,98792.75
2023-02-25T18:49:26.167Z,98795.28
2023-02-25T18:51:54.550Z,98803.78
2023-02-25T18:54:22.999Z,98798.56
2023-02-25T18:56:52.828Z,98810.66
2023-02-25T18:59:21.256Z,98810.06
2023-02-25T19:01:49.667Z,98822.16
2023-02-25T19:04:18.413Z,98813.88
2023-02-25T19:06:47.542Z,98830.69
2023-02-25T19:09:16.035Z,98830.69
2023-02-25T19:11:44.599Z,98839.38
2023-02-25T19:14:19.900Z,98842.66
2023-02-25T19:16:48.341Z,98843.88
2023-02-25T19:19:16.823Z,98855.03
2023-02-25T19:21:45.641Z,98855.03
2023-02-25T19:24:14.049Z,98860.50
2023-02-25T19:26:42.424Z,98872.34
2023-02-25T19:29:10.889Z,98862.00
2023-02-25T19:31:40.808Z,98877.16
2023-02-25T19:34:09.542Z,98883.72
2023-02-25T19:36:37.898Z,98885.38
2023-02-25T19:39:06.880Z,98893.91
2023-02-25T19:41:35.319Z,98899.41
2023-02-25T19:44:03.726Z,98902.13
2023-02-25T19:46:32.157Z,98902.00
2023-02-25T19:49:01.993Z,98907.94
2023-02-25T19:51:30.536Z,98910.91
2023-02-25T19:53:59.024Z,98911.72
2023-02-25T19:56:27.515Z,98911.44
2023-02-25T19:58:58.151Z,98913.16
2023-02-25T20:01:27.842Z,98920.97
2023-02-25T20:03:56.454Z,98931.66
2023-02-25T20:06:27.604Z,98929.06
2023-02-25T20:08:56.331Z,98938.66
2023-02-25T20:11:24.753Z,98929.88
2023-02-25T20:13:53.072Z,98941.16
2023-02-25T20:16:24.620Z,98941.41
2023-02-25T20:18:53.720Z,98928.41
2023-02-25T20:21:22.705Z,98948.06
2023-02-25T20:23:53.299Z,98959.47
2023-02-25T20:26:24.511Z,98965.75
2023-02-25T20:28:54.531Z,98971.56
2023-02-25T20:31:25.234Z,98977.38
2023-02-25T20:33:57.225Z,98978.00
2023-02-25T20:36:28.059Z,98982.25
2023-02-25T20:39:12.895Z,98987.22
2023-02-25T20:41:42.285Z,98995.53
2023-02-25T20:44:11.532Z,99003.94
2023-02-25T20:46:41.094Z,99007.50
2023-02-25T20:49:14.839Z,99006.69
2023-02-25T20:51:45.012Z,99014.38
2023-02-25T20:54:16.143Z,99010.97
2023-02-25T20:56:44.731Z,99024.00
2023-02-25T20:59:15.037Z,99026.81
2023-02-25T21:01:43.735Z,99023.75
2023-02-25T21:04:12.701Z,99025.16
2023-02-25T21:06:41.354Z,99025.66
2023-02-25T21:09:10.484Z,99028.53
2023-02-25T21:11:40.439Z,99029.47
2023-02-25T21:14:10.663Z,99031.94
2023-02-25T21:16:39.942Z,99034.69
2023-02-25T21:19:09.392Z,99042.38
2023-02-25T21:21:38.307Z,99043.81
2023-02-25T21:24:08.532Z,99042.16
2023-02-25T21:26:39.567Z,99037.53
2023-02-25T21:29:11.202Z,99048.69
2023-02-25T21:31:40.535Z,99046.19
2023-02-25T21:34:11.855Z,99047.38
2023-02-25T21:36:40.485Z,99054.19
2023-02-25T21:39:09.808Z,99057.59
2023-02-25T21:41:44.292Z,99061.03
2023-02-25T21:44:15.101Z,99062.00
2023-02-25T21:46:43.481Z,99063.91
2023-02-25T21:49:11.857Z,99070.63
2023-02-25T21:51:40.815Z,99071.97
2023-02-25T21:54:09.357Z,99079.31
2023-02-25T21:56:38.297Z,99087.16
2023-02-25T21:59:07.516Z,99083.69
2023-02-25T22:01:39.449Z,99088.19
2023-02-25T22:04:08.759Z,99096.97
2023-02-25T22:06:37.431Z,99089.84
2023-02-25T22:09:07.631Z,99094.97
2023-02-25T22:11:38.438Z,99099.72
2023-02-25T22:14:08.676Z,99110.16
2023-02-25T22:16:39.660Z,99116.31
2023-02-25T22:19:08.262Z,99111.69
2023-02-25T22:21:37.629Z,99122.09
2023-02-25T22:24:06.897Z,99105.75
2023-02-25T22:26:37.134Z,99122.22
2023-02-25T22:29:08.093Z,99128.50
2023-02-25T22:31:38.713Z,99131.34
2023-02-25T22:34:08.368Z,99128.38
2023-02-25T22:36:37.230Z,99135.97
2023-02-25T22:39:06.932Z,99119.72
2023-02-25T22:41:36.128Z,99130.41
2023-02-25T22:44:05.531Z,99136.44
2023-02-25T22:46:36.272Z,99142.59
2023-02-25T22:49:07.549Z,99133.72
2023-02-25T22:51:37.660Z,99157.28
2023-02-25T22:54:06.427Z,99149.69
2023-02-25T22:56:34.977Z,99161.69
2023-02-25T22:59:04.315Z,99163.44
2023-02-25T23:01:33.123Z,99164.06
2023-02-25T23:04:01.978Z,99170.69
2023-02-25T23:06:48.540Z,99169.59
2023-02-25T23:09:17.411Z,99175.91
2023-02-25T23:11:46.622Z,99184.19
2023-02-25T23:14:16.072Z,99173.78
2023-02-25T23:16:45.967Z,99183.59
2023-02-25T23:19:18.488Z,99185.25
2023-02-25T23:21:48.656Z,99187.59
2023-02-25T23:24:19.763Z,99192.81
2023-02-25T23:26:50.891Z,99198.03
2023-02-25T23:29:19.722Z,99198.88
2023-02-25T23:31:50.059Z,99202.44
2023-02-25T23:34:20.903Z,99200.03
2023-02-25T23:36:50.960Z,99210.47
2023-02-25T23:39:19.298Z,99211.50
2023-02-25T23:44:16.815Z,99218.28
2023-02-25T23:46:46.242Z,99215.69
2023-02-25T23:49:15.997Z,99225.41
2023-02-25T23:51:45.756Z,99227.88
2023-02-25T23:54:19.241Z,99228.09
2023-02-25T23:56:47.611Z,99236.88
2023-02-25T23:59:16.134Z,99231.88
